createdAt,value
2022-08-20T00:00:28.810Z,20.43
2022-08-20T00:01:28.857Z,20.43
2022-08-20T00:02:28.791Z,20.40
2022-08-20T00:03:28.785Z,20.39
2022-08-20T00:04:28.791Z,20.39
2022-08-20T00:05:28.754Z,20.37
2022-08-20T00:06:28.764Z,20.36
2022-08-20T00:07:28.732Z,20.34
2022-08-20T00:08:28.721Z,20.34
2022-08-20T00:09:28.711Z,20.37
2022-08-20T00:10:28.695Z,20.37
2022-08-20T00:11:29.010Z,20.39
2022-08-20T00:12:28.692Z,20.36
2022-08-20T00:13:28.663Z,20.36
2022-08-20T00:14:28.652Z,20.32
2022-08-20T00:15:28.642Z,20.29
2022-08-20T00:16:28.654Z,20.28
2022-08-20T00:17:28.647Z,20.25
2022-08-20T00:18:28.603Z,20.24
2022-08-20T00:19:28.597Z,20.22
2022-08-20T00:20:28.590Z,20.21
2022-08-20T00:21:28.573Z,20.19
2022-08-20T00:22:28.554Z,20.16
2022-08-20T00:23:28.563Z,20.13
2022-08-20T00:24:28.533Z,20.13
2022-08-20T00:25:28.524Z,20.13
2022-08-20T00:26:28.508Z,20.13
2022-08-20T00:27:28.504Z,20.13
2022-08-20T00:28:28.505Z,20.13
2022-08-20T00:29:28.483Z,20.14
2022-08-20T00:30:28.463Z,20.21
2022-08-20T00:31:28.455Z,20.25
2022-08-20T00:32:28.448Z,20.26
2022-08-20T00:33:28.434Z,20.28
2022-08-20T00:34:28.433Z,20.31
2022-08-20T00:35:28.415Z,20.31
2022-08-20T00:36:32.541Z,20.32
2022-08-20T00:37:28.385Z,20.32
2022-08-20T00:38:28.366Z,20.37
2022-08-20T00:39:28.375Z,20.40
2022-08-20T00:40:28.344Z,20.43
2022-08-20T00:41:28.337Z,20.47
2022-08-20T00:42:28.316Z,20.55
2022-08-20T00:43:28.307Z,20.62
2022-08-20T00:44:28.294Z,20.66
2022-08-20T00:45:28.306Z,20.66
2022-08-20T00:46:31.878Z,20.66
2022-08-20T00:47:28.267Z,20.65
2022-08-20T00:48:28.249Z,20.62
2022-08-20T00:49:28.247Z,20.58
2022-08-20T00:50:28.245Z,20.56
2022-08-20T00:51:29.913Z,20.56
2022-08-20T00:52:28.197Z,20.59
2022-08-20T00:53:28.196Z,20.62
2022-08-20T00:54:28.178Z,20.63
2022-08-20T00:55:31.514Z,20.66
2022-08-20T00:56:28.168Z,20.70
2022-08-20T00:57:28.140Z,20.75
2022-08-20T00:58:29.131Z,20.80
2022-08-20T00:59:28.118Z,20.82
2022-08-20T01:00:28.142Z,20.82
2022-08-20T01:01:28.206Z,20.82
2022-08-20T01:02:28.101Z,20.84
2022-08-20T01:03:28.078Z,20.87
2022-08-20T01:04:28.058Z,20.88
2022-08-20T01:05:29.574Z,20.90
2022-08-20T01:06:28.040Z,20.92
2022-08-20T01:07:28.053Z,20.95
2022-08-20T01:08:28.025Z,20.99
2022-08-20T01:09:49.446Z,21.03
2022-08-20T01:10:28.987Z,21.03
2022-08-20T01:11:27.984Z,21.07
2022-08-20T01:12:28.996Z,21.09
2022-08-20T01:13:27.958Z,21.11
2022-08-20T01:14:27.940Z,21.12
2022-08-20T01:15:31.099Z,21.12
2022-08-20T01:16:28.115Z,21.11
2022-08-20T01:17:27.911Z,21.12
2022-08-20T01:18:28.006Z,21.11
2022-08-20T01:19:29.173Z,21.12
2022-08-20T01:20:27.872Z,21.11
2022-08-20T01:21:27.873Z,21.09
2022-08-20T01:22:27.855Z,21.11
2022-08-20T01:23:27.864Z,21.11
2022-08-20T01:24:27.832Z,21.09
2022-08-20T01:25:27.822Z,21.09
2022-08-20T01:26:27.811Z,21.07
2022-08-20T01:27:27.802Z,21.06
2022-08-20T01:28:27.790Z,21.05
2022-08-20T01:29:27.792Z,21.03
2022-08-20T01:30:27.764Z,21.03
2022-08-20T01:31:27.752Z,21.02
2022-08-20T01:32:27.742Z,21.02
2022-08-20T01:33:27.734Z,20.99
2022-08-20T01:34:27.733Z,21.00
2022-08-20T01:35:27.711Z,20.99
2022-08-20T01:36:27.693Z,20.99
2022-08-20T01:37:31.457Z,21.00
2022-08-20T01:38:27.674Z,21.00
2022-08-20T01:39:27.662Z,21.03
2022-08-20T01:40:27.665Z,21.03
2022-08-20T01:41:28.879Z,21.06
2022-08-20T01:42:27.658Z,21.06
2022-08-20T01:43:27.614Z,21.07
2022-08-20T01:44:27.612Z,21.09
2022-08-20T01:45:27.804Z,21.06
2022-08-20T01:46:27.586Z,21.06
2022-08-20T01:47:27.566Z,21.03
2022-08-20T01:48:27.574Z,21.02
2022-08-20T01:49:27.546Z,21.00
2022-08-20T01:50:27.558Z,20.97
2022-08-20T01:51:27.525Z,20.97
2022-08-20T01:52:27.516Z,20.95
2022-08-20T01:53:27.498Z,20.92
2022-08-20T01:54:27.496Z,20.92
2022-08-20T01:55:27.486Z,20.90
2022-08-20T01:56:27.489Z,20.87
2022-08-20T01:57:27.464Z,20.84
2022-08-20T01:58:27.469Z,20.82
2022-08-20T01:59:27.463Z,20.82
2022-08-20T02:00:27.429Z,20.81
2022-08-20T02:01:27.540Z,20.78
2022-08-20T02:02:27.407Z,20.77
2022-08-20T02:03:27.389Z,20.74
2022-08-20T02:04:27.378Z,20.72
2022-08-20T02:05:29.899Z,20.69
2022-08-20T02:06:27.357Z,20.69
2022-08-20T02:07:27.359Z,20.69
2022-08-20T02:08:27.329Z,20.67
2022-08-20T02:09:27.341Z,20.66
2022-08-20T02:10:27.310Z,20.67
2022-08-20T02:11:27.302Z,20.66
2022-08-20T02:12:27.318Z,20.66
2022-08-20T02:13:27.277Z,20.65
2022-08-20T02:14:27.270Z,20.63
2022-08-20T02:15:34.774Z,20.63
2022-08-20T02:16:28.241Z,20.63
2022-08-20T02:17:27.231Z,20.62
2022-08-20T02:18:27.246Z,20.63
2022-08-20T02:19:27.213Z,20.62
2022-08-20T02:20:27.201Z,20.62
2022-08-20T02:21:27.182Z,20.63
2022-08-20T02:22:27.171Z,20.63
2022-08-20T02:23:27.179Z,20.63
2022-08-20T02:24:27.150Z,20.63
2022-08-20T02:25:27.141Z,20.63
2022-08-20T02:26:27.142Z,20.62
2022-08-20T02:27:27.110Z,20.62
2022-08-20T02:28:27.101Z,20.60
2022-08-20T02:29:27.101Z,20.59
2022-08-20T02:30:27.888Z,20.60
2022-08-20T02:31:27.898Z,20.58
2022-08-20T02:32:33.621Z,20.56
2022-08-20T02:33:28.042Z,20.58
2022-08-20T02:34:27.052Z,20.58
2022-08-20T02:35:27.029Z,20.59
2022-08-20T02:36:27.011Z,20.59
2022-08-20T02:37:26.993Z,20.58
2022-08-20T02:38:26.982Z,20.58
2022-08-20T02:39:26.978Z,20.59
2022-08-20T02:40:30.464Z,20.59
2022-08-20T02:41:26.943Z,20.62
2022-08-20T02:42:26.933Z,20.62
2022-08-20T02:43:26.924Z,20.63
2022-08-20T02:44:26.913Z,20.62
2022-08-20T02:45:26.924Z,20.62
2022-08-20T02:46:26.894Z,20.62
2022-08-20T02:47:26.874Z,20.65
2022-08-20T02:48:26.864Z,20.65
2022-08-20T02:49:26.853Z,20.65
2022-08-20T02:50:26.843Z,20.65
2022-08-20T02:51:30.419Z,20.66
2022-08-20T02:52:26.822Z,20.66
2022-08-20T02:53:26.805Z,20.66
2022-08-20T02:54:26.796Z,20.66
2022-08-20T02:55:27.380Z,20.67
2022-08-20T02:56:26.796Z,20.67
2022-08-20T02:57:26.768Z,20.67
2022-08-20T02:58:26.756Z,20.67
2022-08-20T02:59:26.735Z,20.67
2022-08-20T03:00:26.751Z,20.69
2022-08-20T03:01:26.765Z,20.69
2022-08-20T03:02:26.724Z,20.67
2022-08-20T03:03:26.707Z,20.69
2022-08-20T03:04:26.687Z,20.72
2022-08-20T03:05:26.667Z,20.72
2022-08-20T03:06:26.656Z,20.75
2022-08-20T03:07:26.667Z,20.77
2022-08-20T03:08:26.638Z,20.77
2022-08-20T03:09:26.626Z,20.78
2022-08-20T03:10:26.617Z,20.80
2022-08-20T03:11:26.597Z,20.81
2022-08-20T03:12:26.587Z,20.82
2022-08-20T03:13:26.599Z,20.82
2022-08-20T03:14:26.567Z,20.81
2022-08-20T03:15:26.548Z,20.82
2022-08-20T03:16:26.548Z,20.82
2022-08-20T03:17:26.552Z,20.84
2022-08-20T03:18:26.519Z,20.84
2022-08-20T03:19:26.528Z,20.84
2022-08-20T03:20:26.504Z,20.84
2022-08-20T03:21:26.489Z,20.85
2022-08-20T03:22:26.477Z,20.84
2022-08-20T03:23:26.459Z,20.85
2022-08-20T03:24:26.451Z,20.85
2022-08-20T03:25:26.460Z,20.87
2022-08-20T03:26:26.431Z,20.87
2022-08-20T03:27:26.845Z,20.85
2022-08-20T03:28:27.400Z,20.85
2022-08-20T03:29:26.390Z,20.85
2022-08-20T03:30:26.380Z,20.85
2022-08-20T03:31:26.380Z,20.85
2022-08-20T03:32:26.360Z,20.85
2022-08-20T03:33:26.349Z,20.85
2022-08-20T03:34:26.341Z,20.84
2022-08-20T03:35:26.336Z,20.85
2022-08-20T03:36:27.829Z,20.85
2022-08-20T03:37:26.299Z,20.84
2022-08-20T03:38:32.622Z,20.82
2022-08-20T03:39:27.272Z,20.80
2022-08-20T03:40:26.263Z,20.78
2022-08-20T03:41:26.252Z,20.77
2022-08-20T03:42:26.260Z,20.75
2022-08-20T03:43:26.223Z,20.74
2022-08-20T03:44:26.221Z,20.72
2022-08-20T03:45:26.204Z,20.70
2022-08-20T03:46:26.204Z,20.70
2022-08-20T03:47:26.202Z,20.70
2022-08-20T03:48:26.173Z,20.70
2022-08-20T03:49:26.163Z,20.72
2022-08-20T03:50:26.152Z,20.69
2022-08-20T03:51:26.133Z,20.69
2022-08-20T03:52:26.153Z,20.69
2022-08-20T03:53:26.115Z,20.67
2022-08-20T03:54:29.110Z,20.66
2022-08-20T03:55:27.094Z,20.65
2022-08-20T03:56:26.086Z,20.65
2022-08-20T03:57:26.064Z,20.63
2022-08-20T03:58:34.735Z,20.65
2022-08-20T03:59:27.047Z,20.65
2022-08-20T04:00:26.044Z,20.62
2022-08-20T04:01:45.285Z,20.63
2022-08-20T04:02:27.015Z,20.60
2022-08-20T04:03:26.046Z,20.62
2022-08-20T04:04:25.995Z,20.62
2022-08-20T04:05:28.291Z,20.62
2022-08-20T04:06:25.975Z,20.59
2022-08-20T04:07:26.057Z,20.60
2022-08-20T04:08:25.954Z,20.59
2022-08-20T04:09:25.955Z,20.62
2022-08-20T04:10:25.926Z,20.63
2022-08-20T04:11:25.906Z,20.62
2022-08-20T04:12:25.916Z,20.58
2022-08-20T04:13:25.890Z,20.55
2022-08-20T04:14:25.877Z,20.52
2022-08-20T04:15:25.897Z,20.50
2022-08-20T04:16:25.856Z,20.43
2022-08-20T04:17:25.840Z,20.40
2022-08-20T04:18:25.838Z,20.37
2022-08-20T04:19:25.817Z,20.34
2022-08-20T04:20:25.814Z,20.32
2022-08-20T04:21:25.816Z,20.29
2022-08-20T04:22:26.787Z,20.26
2022-08-20T04:23:25.768Z,20.26
2022-08-20T04:24:32.548Z,20.25
2022-08-20T04:25:26.750Z,20.24
2022-08-20T04:26:25.739Z,20.21
2022-08-20T04:27:25.747Z,20.16
2022-08-20T04:28:32.762Z,20.16
2022-08-20T04:29:25.700Z,20.14
2022-08-20T04:30:26.694Z,20.14
2022-08-20T04:31:25.737Z,20.11
2022-08-20T04:32:25.674Z,20.10
2022-08-20T04:33:34.148Z,20.09
2022-08-20T04:34:26.642Z,20.09
2022-08-20T04:35:25.623Z,20.09
2022-08-20T04:36:25.622Z,20.09
2022-08-20T04:37:25.603Z,20.07
2022-08-20T04:38:25.614Z,20.07
2022-08-20T04:39:26.581Z,20.07
2022-08-20T04:40:25.572Z,20.09
2022-08-20T04:41:25.555Z,20.10
2022-08-20T04:42:25.552Z,20.10
2022-08-20T04:43:25.569Z,20.10
2022-08-20T04:44:25.553Z,20.09
2022-08-20T04:45:25.512Z,20.07
2022-08-20T04:46:25.827Z,20.06
2022-08-20T04:47:34.816Z,20.03
2022-08-20T04:48:26.474Z,20.04
2022-08-20T04:49:25.485Z,20.03
2022-08-20T04:50:25.455Z,20.04
2022-08-20T04:51:25.443Z,20.03
2022-08-20T04:52:25.425Z,20.03
2022-08-20T04:53:26.052Z,20.02
2022-08-20T04:54:25.406Z,20.00
2022-08-20T04:55:25.415Z,19.99
2022-08-20T04:56:25.384Z,19.96
2022-08-20T04:57:25.366Z,19.96
2022-08-20T04:58:25.364Z,19.96
2022-08-20T04:59:25.345Z,19.96
2022-08-20T05:00:25.356Z,19.96
2022-08-20T05:01:25.347Z,20.00
2022-08-20T05:02:25.306Z,19.99
2022-08-20T05:03:25.297Z,19.95
2022-08-20T05:04:25.287Z,19.96
2022-08-20T05:05:25.276Z,19.99
2022-08-20T05:06:25.308Z,20.00
2022-08-20T05:07:25.252Z,20.00
2022-08-20T05:08:25.237Z,20.00
2022-08-20T05:09:25.227Z,20.00
2022-08-20T05:10:25.218Z,19.99
2022-08-20T05:11:35.614Z,20.00
2022-08-20T05:12:26.209Z,20.02
2022-08-20T05:13:27.380Z,20.02
2022-08-20T05:14:25.186Z,20.04
2022-08-20T05:15:25.158Z,20.04
2022-08-20T05:16:25.139Z,20.03
2022-08-20T05:17:25.158Z,20.04
2022-08-20T05:18:25.122Z,20.04
2022-08-20T05:19:25.108Z,20.06
2022-08-20T05:20:25.099Z,20.07
2022-08-20T05:21:25.098Z,20.09
2022-08-20T05:22:25.069Z,20.07
2022-08-20T05:23:26.081Z,20.10
2022-08-20T05:24:25.051Z,20.11
2022-08-20T05:25:25.039Z,20.13
2022-08-20T05:26:25.030Z,20.16
2022-08-20T05:27:25.150Z,20.19
2022-08-20T05:28:24.999Z,20.19
2022-08-20T05:29:25.010Z,20.22
2022-08-20T05:30:24.982Z,20.22
2022-08-20T05:31:31.796Z,20.24
2022-08-20T05:32:25.960Z,20.25
2022-08-20T05:33:24.941Z,20.28
2022-08-20T05:34:24.931Z,20.31
2022-08-20T05:35:24.932Z,20.34
2022-08-20T05:36:24.910Z,20.40
2022-08-20T05:37:24.891Z,20.43
2022-08-20T05:38:24.881Z,20.48
2022-08-20T05:39:24.892Z,20.52
2022-08-20T05:40:24.932Z,20.56
2022-08-20T05:41:29.342Z,20.62
2022-08-20T05:42:25.842Z,20.67
2022-08-20T05:43:24.822Z,20.72
2022-08-20T05:44:24.822Z,20.70
2022-08-20T05:45:24.802Z,20.75
2022-08-20T05:46:24.793Z,20.80
2022-08-20T05:47:24.793Z,20.84
2022-08-20T05:48:24.771Z,20.90
2022-08-20T05:49:24.753Z,20.97
2022-08-20T05:50:24.743Z,21.02
2022-08-20T05:51:24.734Z,21.05
2022-08-20T05:52:24.724Z,21.06
2022-08-20T05:53:24.724Z,21.09
2022-08-20T05:54:24.695Z,21.11
2022-08-20T05:55:24.693Z,21.09
2022-08-20T05:56:27.015Z,21.09
2022-08-20T05:57:24.674Z,21.09
2022-08-20T05:58:24.674Z,21.07
2022-08-20T05:59:24.644Z,21.02
2022-08-20T06:00:24.625Z,20.97
2022-08-20T06:01:24.686Z,20.93
2022-08-20T06:02:24.606Z,20.92
2022-08-20T06:03:24.597Z,20.90
2022-08-20T06:04:24.605Z,20.87
2022-08-20T06:05:24.576Z,20.84
2022-08-20T06:06:44.639Z,20.81
2022-08-20T06:07:25.555Z,20.80
2022-08-20T06:08:24.536Z,20.78
2022-08-20T06:09:32.004Z,20.77
2022-08-20T06:10:25.541Z,20.75
2022-08-20T06:11:24.507Z,20.78
2022-08-20T06:12:24.494Z,20.77
2022-08-20T06:13:24.488Z,20.75
2022-08-20T06:14:24.469Z,20.78
2022-08-20T06:15:24.486Z,20.78
2022-08-20T06:16:24.447Z,20.78
2022-08-20T06:17:24.437Z,20.80
2022-08-20T06:18:28.358Z,20.81
2022-08-20T06:19:26.117Z,20.82
2022-08-20T06:20:24.407Z,20.85
2022-08-20T06:21:24.429Z,20.88
2022-08-20T06:22:24.967Z,20.90
2022-08-20T06:23:24.377Z,20.93
2022-08-20T06:24:24.371Z,20.95
2022-08-20T06:25:24.349Z,20.96
2022-08-20T06:26:29.773Z,20.99
2022-08-20T06:27:25.327Z,21.00
2022-08-20T06:28:24.314Z,21.03
2022-08-20T06:29:24.310Z,21.06
2022-08-20T06:30:24.289Z,21.05
2022-08-20T06:31:24.281Z,21.06
2022-08-20T06:32:28.743Z,21.07
2022-08-20T06:33:25.260Z,21.12
2022-08-20T06:34:24.240Z,21.15
2022-08-20T06:35:24.239Z,21.21
2022-08-20T06:36:24.221Z,21.25
2022-08-20T06:37:24.636Z,21.35
2022-08-20T06:38:24.221Z,21.37
2022-08-20T06:39:24.191Z,21.45
2022-08-20T06:40:24.180Z,21.51
2022-08-20T06:41:36.286Z,21.55
2022-08-20T06:42:25.153Z,21.60
2022-08-20T06:43:24.151Z,21.69
2022-08-20T06:44:24.161Z,21.72
2022-08-20T06:45:24.121Z,21.76
2022-08-20T06:46:24.111Z,21.83
2022-08-20T06:47:24.101Z,21.89
2022-08-20T06:48:24.090Z,21.98
2022-08-20T06:49:24.112Z,22.07
2022-08-20T06:50:24.073Z,22.10
2022-08-20T06:51:24.053Z,22.20
2022-08-20T06:52:27.075Z,22.22
2022-08-20T06:53:25.034Z,22.25
2022-08-20T06:54:28.587Z,22.30
2022-08-20T06:55:25.064Z,22.38
2022-08-20T06:56:24.013Z,22.47
2022-08-20T06:57:23.992Z,22.55
2022-08-20T06:58:36.774Z,22.60
2022-08-20T06:59:24.965Z,22.73
2022-08-20T07:00:23.953Z,22.81
2022-08-20T07:01:23.983Z,22.91
2022-08-20T07:02:30.172Z,23.02
2022-08-20T07:03:24.924Z,23.13
2022-08-20T07:04:23.905Z,23.21
2022-08-20T07:05:23.895Z,23.25
2022-08-20T07:06:23.885Z,23.34
2022-08-20T07:07:23.890Z,23.40
2022-08-20T07:08:23.856Z,23.36
2022-08-20T07:09:23.847Z,23.28
2022-08-20T07:10:23.844Z,23.31
2022-08-20T07:11:28.181Z,23.40
2022-08-20T07:12:24.857Z,23.40
2022-08-20T07:13:23.806Z,23.43
2022-08-20T07:14:23.787Z,23.46
2022-08-20T07:15:23.786Z,23.46
2022-08-20T07:16:23.770Z,23.47
2022-08-20T07:17:24.282Z,23.51
2022-08-20T07:18:27.960Z,23.54
2022-08-20T07:19:23.738Z,23.47
2022-08-20T07:20:23.729Z,23.37
2022-08-20T07:21:23.719Z,23.37
2022-08-20T07:22:23.699Z,23.40
2022-08-20T07:23:23.717Z,23.44
2022-08-20T07:24:23.678Z,23.54
2022-08-20T07:25:24.671Z,23.54
2022-08-20T07:26:23.657Z,23.50
2022-08-20T07:27:23.648Z,23.46
2022-08-20T07:28:23.637Z,23.25
2022-08-20T07:29:23.649Z,23.27
2022-08-20T07:30:23.691Z,23.27
2022-08-20T07:31:23.610Z,23.20
2022-08-20T07:32:23.590Z,23.24
2022-08-20T07:33:24.652Z,23.36
2022-08-20T07:34:23.591Z,23.44
2022-08-20T07:35:23.561Z,23.54
2022-08-20T07:36:23.551Z,23.61
2022-08-20T07:37:23.542Z,23.65
2022-08-20T07:38:23.522Z,23.65
2022-08-20T07:39:23.521Z,23.65
2022-08-20T07:40:26.084Z,23.66
2022-08-20T07:41:23.493Z,23.77
2022-08-20T07:42:23.481Z,23.80
2022-08-20T07:43:23.472Z,23.81
2022-08-20T07:44:30.773Z,23.92
2022-08-20T07:45:24.472Z,24.03
2022-08-20T07:46:23.433Z,24.16
2022-08-20T07:47:24.433Z,24.13
2022-08-20T07:48:30.867Z,24.20
2022-08-20T07:49:24.413Z,24.26
2022-08-20T07:50:23.397Z,24.33
2022-08-20T07:51:23.406Z,24.40
2022-08-20T07:52:23.364Z,24.66
2022-08-20T07:53:23.363Z,25.13
2022-08-20T07:54:23.345Z,25.38
2022-08-20T07:55:23.343Z,25.47
2022-08-20T07:56:24.470Z,25.65
2022-08-20T07:57:23.334Z,25.78
2022-08-20T07:58:23.314Z,25.88
2022-08-20T07:59:24.295Z,25.81
2022-08-20T08:00:23.294Z,25.58
2022-08-20T08:01:23.309Z,25.35
2022-08-20T08:02:23.277Z,25.14
2022-08-20T08:03:23.247Z,24.91
2022-08-20T08:04:24.235Z,24.86
2022-08-20T08:05:23.227Z,24.91
2022-08-20T08:06:29.214Z,25.03
2022-08-20T08:07:24.249Z,25.16
2022-08-20T08:08:23.192Z,25.25
2022-08-20T08:09:23.186Z,25.33
2022-08-20T08:10:23.216Z,25.44
2022-08-20T08:11:23.158Z,25.46
2022-08-20T08:12:23.146Z,25.50
2022-08-20T08:13:23.186Z,25.58
2022-08-20T08:14:23.119Z,25.68
2022-08-20T08:15:23.109Z,25.75
2022-08-20T08:16:23.098Z,25.80
2022-08-20T08:17:23.089Z,25.85
2022-08-20T08:18:23.070Z,25.88
2022-08-20T08:19:23.090Z,25.93
2022-08-20T08:20:23.050Z,25.96
2022-08-20T08:21:23.040Z,25.93
2022-08-20T08:22:23.032Z,25.95
2022-08-20T08:23:24.749Z,25.99
2022-08-20T08:24:27.794Z,25.99
2022-08-20T08:25:23.000Z,26.03
2022-08-20T08:26:22.982Z,26.15
2022-08-20T08:27:22.982Z,26.29
2022-08-20T08:28:22.962Z,26.37
2022-08-20T08:29:22.954Z,26.43
2022-08-20T08:30:22.953Z,26.40
2022-08-20T08:31:22.932Z,26.43
2022-08-20T08:32:22.914Z,26.45
2022-08-20T08:33:22.913Z,26.37
2022-08-20T08:34:22.893Z,26.23
2022-08-20T08:35:22.913Z,26.07
2022-08-20T08:36:22.875Z,25.98
2022-08-20T08:37:22.864Z,25.93
2022-08-20T08:38:22.863Z,25.88
2022-08-20T08:39:22.843Z,25.91
2022-08-20T08:40:22.855Z,25.90
2022-08-20T08:41:22.844Z,25.90
2022-08-20T08:42:22.805Z,25.93
2022-08-20T08:43:22.795Z,25.99
2022-08-20T08:44:22.785Z,26.10
2022-08-20T08:45:22.776Z,26.19
2022-08-20T08:46:22.766Z,26.28
2022-08-20T08:47:22.778Z,26.36
2022-08-20T08:48:22.745Z,26.44
2022-08-20T08:49:22.735Z,26.53
2022-08-20T08:50:43.847Z,26.63
2022-08-20T08:51:23.715Z,26.62
2022-08-20T08:52:22.977Z,26.97
2022-08-20T08:53:22.707Z,27.17
2022-08-20T08:54:22.677Z,27.17
2022-08-20T08:55:22.668Z,27.14
2022-08-20T08:56:22.649Z,26.97
2022-08-20T08:57:22.647Z,26.71
2022-08-20T08:58:22.632Z,26.40
2022-08-20T08:59:22.639Z,26.16
2022-08-20T09:00:22.607Z,25.85
2022-08-20T09:01:56.620Z,25.65
2022-08-20T09:02:23.648Z,25.55
2022-08-20T09:03:22.580Z,25.40
2022-08-20T09:04:22.560Z,25.29
2022-08-20T09:05:22.575Z,25.25
2022-08-20T09:06:22.541Z,25.25
2022-08-20T09:07:22.531Z,25.23
2022-08-20T09:08:22.521Z,25.23
2022-08-20T09:09:22.511Z,25.23
2022-08-20T09:10:23.074Z,25.17
2022-08-20T09:11:22.497Z,25.13
2022-08-20T09:12:22.472Z,25.18
2022-08-20T09:13:22.474Z,25.26
2022-08-20T09:14:22.452Z,25.40
2022-08-20T09:15:22.443Z,25.53
2022-08-20T09:16:22.490Z,25.66
2022-08-20T09:17:22.422Z,25.80
2022-08-20T09:18:22.403Z,25.98
2022-08-20T09:19:22.396Z,26.09
2022-08-20T09:20:23.031Z,26.23
2022-08-20T09:21:22.376Z,26.43
2022-08-20T09:22:22.383Z,26.71
2022-08-20T09:23:22.355Z,27.40
2022-08-20T09:24:22.344Z,27.67
2022-08-20T09:25:22.334Z,27.77
2022-08-20T09:26:22.315Z,28.04
2022-08-20T09:27:23.344Z,28.05
2022-08-20T09:28:22.295Z,28.07
2022-08-20T09:29:22.286Z,27.90
2022-08-20T09:30:22.275Z,27.83
2022-08-20T09:31:22.266Z,27.74
2022-08-20T09:32:22.247Z,27.73
2022-08-20T09:33:22.264Z,27.64
2022-08-20T09:34:22.227Z,27.54
2022-08-20T09:35:22.219Z,27.49
2022-08-20T09:36:31.627Z,27.42
2022-08-20T09:37:23.198Z,27.14
2022-08-20T09:38:22.206Z,26.60
2022-08-20T09:39:22.180Z,26.26
2022-08-20T09:40:22.187Z,26.05
2022-08-20T09:41:22.162Z,25.95
2022-08-20T09:42:22.140Z,26.09
2022-08-20T09:43:22.129Z,25.99
2022-08-20T09:44:22.132Z,25.91
2022-08-20T09:45:22.111Z,25.80
2022-08-20T09:46:27.150Z,25.78
2022-08-20T09:47:23.090Z,25.75
2022-08-20T09:48:22.071Z,25.69
2022-08-20T09:49:23.089Z,25.63
2022-08-20T09:50:22.051Z,25.54
2022-08-20T09:51:22.090Z,25.65
2022-08-20T09:52:22.030Z,25.80
2022-08-20T09:53:22.022Z,25.75
2022-08-20T09:54:22.011Z,25.62
2022-08-20T09:55:22.020Z,25.43
2022-08-20T09:56:21.983Z,25.33
2022-08-20T09:57:21.973Z,25.53
2022-08-20T09:58:21.962Z,25.51
2022-08-20T09:59:21.953Z,25.43
2022-08-20T10:00:21.944Z,25.33
2022-08-20T10:01:22.028Z,25.07
2022-08-20T10:02:21.915Z,24.96
2022-08-20T10:03:21.914Z,24.98
2022-08-20T10:04:21.895Z,24.74
2022-08-20T10:05:21.884Z,24.63
2022-08-20T10:06:21.895Z,24.63
2022-08-20T10:07:21.856Z,24.50
2022-08-20T10:08:21.856Z,24.55
2022-08-20T10:09:21.845Z,24.33
2022-08-20T10:10:21.834Z,24.18
2022-08-20T10:11:21.818Z,24.30
2022-08-20T10:12:21.826Z,24.38
2022-08-20T10:13:21.786Z,24.55
2022-08-20T10:14:21.790Z,24.65
2022-08-20T10:15:21.781Z,24.69
2022-08-20T10:16:21.765Z,24.80
2022-08-20T10:17:21.747Z,24.86
2022-08-20T10:18:21.790Z,24.93
2022-08-20T10:19:21.725Z,25.06
2022-08-20T10:20:21.718Z,25.10
2022-08-20T10:21:21.699Z,25.13
2022-08-20T10:22:21.701Z,25.11
2022-08-20T10:23:21.679Z,24.98
2022-08-20T10:24:21.693Z,24.68
2022-08-20T10:25:21.659Z,24.55
2022-08-20T10:26:21.650Z,24.45
2022-08-20T10:27:21.639Z,24.40
2022-08-20T10:28:21.628Z,24.42
2022-08-20T10:29:28.740Z,24.35
2022-08-20T10:30:21.606Z,24.26
2022-08-20T10:31:21.597Z,24.36
2022-08-20T10:32:21.586Z,24.48
2022-08-20T10:33:21.567Z,24.20
2022-08-20T10:34:21.557Z,24.14
2022-08-20T10:35:21.567Z,24.18
2022-08-20T10:36:21.536Z,24.33
2022-08-20T10:37:21.517Z,24.53
2022-08-20T10:38:21.516Z,24.66
2022-08-20T10:39:21.498Z,24.73
2022-08-20T10:40:21.548Z,24.58
2022-08-20T10:41:21.498Z,24.51
2022-08-20T10:42:21.468Z,24.45
2022-08-20T10:43:21.450Z,24.35
2022-08-20T10:44:21.450Z,24.28
2022-08-20T10:45:21.429Z,24.33
2022-08-20T10:46:21.420Z,24.55
2022-08-20T10:47:21.420Z,24.88
2022-08-20T10:48:21.745Z,25.33
2022-08-20T10:49:21.381Z,25.81
2022-08-20T10:50:21.378Z,26.13
2022-08-20T10:51:21.360Z,26.18
2022-08-20T10:52:22.370Z,26.00
2022-08-20T10:53:21.344Z,25.81
2022-08-20T10:54:21.332Z,25.88
2022-08-20T10:55:21.311Z,25.93
2022-08-20T10:56:21.310Z,25.91
2022-08-20T10:57:21.293Z,25.90
2022-08-20T10:58:23.130Z,25.99
2022-08-20T10:59:21.277Z,26.10
2022-08-20T11:00:21.263Z,26.22
2022-08-20T11:01:32.853Z,26.28
2022-08-20T11:02:22.300Z,26.33
2022-08-20T11:03:21.244Z,26.13
2022-08-20T11:04:21.223Z,25.81
2022-08-20T11:05:21.211Z,25.55
2022-08-20T11:06:21.203Z,25.59
2022-08-20T11:07:21.183Z,25.59
2022-08-20T11:08:33.672Z,25.48
2022-08-20T11:09:22.175Z,25.51
2022-08-20T11:10:21.153Z,25.70
2022-08-20T11:11:21.136Z,25.83
2022-08-20T11:12:21.137Z,26.09
2022-08-20T11:13:21.114Z,26.34
2022-08-20T11:14:21.125Z,26.37
2022-08-20T11:15:21.089Z,26.44
2022-08-20T11:16:21.077Z,26.37
2022-08-20T11:17:21.066Z,26.28
2022-08-20T11:18:21.056Z,26.25
2022-08-20T11:19:21.090Z,26.21
2022-08-20T11:20:21.037Z,26.13
2022-08-20T11:21:21.019Z,26.22
2022-08-20T11:22:21.019Z,26.37
2022-08-20T11:23:20.998Z,26.33
2022-08-20T11:24:20.989Z,26.34
2022-08-20T11:25:20.997Z,26.48
2022-08-20T11:26:20.971Z,26.60
2022-08-20T11:27:20.954Z,26.83
2022-08-20T11:28:31.786Z,27.03
2022-08-20T11:29:21.930Z,27.07
2022-08-20T11:30:20.927Z,27.11
2022-08-20T11:31:20.932Z,27.10
2022-08-20T11:32:20.908Z,26.85
2022-08-20T11:33:20.882Z,26.74
2022-08-20T11:34:20.880Z,26.68
2022-08-20T11:35:40.978Z,26.63
2022-08-20T11:36:21.880Z,26.55
2022-08-20T11:37:20.838Z,26.45
2022-08-20T11:38:20.831Z,26.41
2022-08-20T11:39:20.820Z,26.45
2022-08-20T11:40:20.904Z,26.56
2022-08-20T11:41:20.792Z,26.48
2022-08-20T11:42:20.802Z,26.41
2022-08-20T11:43:20.773Z,26.29
2022-08-20T11:44:21.668Z,26.29
2022-08-20T11:45:20.750Z,26.31
2022-08-20T11:46:23.349Z,26.36
2022-08-20T11:47:20.754Z,26.34
2022-08-20T11:48:20.720Z,26.31
2022-08-20T11:49:20.705Z,26.26
2022-08-20T11:50:20.693Z,26.16
2022-08-20T11:51:20.682Z,26.21
2022-08-20T11:52:20.674Z,26.23
2022-08-20T11:53:21.525Z,26.19
2022-08-20T11:54:20.645Z,26.29
2022-08-20T11:55:20.636Z,26.38
2022-08-20T11:56:21.625Z,26.51
2022-08-20T11:57:20.614Z,26.66
2022-08-20T11:58:20.625Z,26.74
2022-08-20T11:59:20.585Z,26.73
2022-08-20T12:00:20.575Z,26.84
2022-08-20T12:01:21.567Z,26.99
2022-08-20T12:02:20.594Z,27.20
2022-08-20T12:03:20.581Z,27.26
2022-08-20T12:04:20.557Z,27.25
2022-08-20T12:05:20.517Z,27.18
2022-08-20T12:06:20.517Z,27.05
2022-08-20T12:07:20.499Z,26.73
2022-08-20T12:08:25.437Z,26.34
2022-08-20T12:09:24.360Z,26.16
2022-08-20T12:10:20.468Z,26.07
2022-08-20T12:11:20.457Z,26.09
2022-08-20T12:12:20.445Z,26.22
2022-08-20T12:13:20.428Z,26.29
2022-08-20T12:14:20.420Z,26.34
2022-08-20T12:15:20.420Z,26.44
2022-08-20T12:16:20.399Z,26.48
2022-08-20T12:17:20.380Z,26.68
2022-08-20T12:18:20.370Z,26.73
2022-08-20T12:19:20.362Z,26.84
2022-08-20T12:20:20.399Z,26.85
2022-08-20T12:21:20.340Z,26.84
2022-08-20T12:22:24.750Z,26.85
2022-08-20T12:23:20.311Z,27.03
2022-08-20T12:24:20.301Z,27.17
2022-08-20T12:25:20.290Z,27.30
2022-08-20T12:26:20.302Z,27.40
2022-08-20T12:27:20.270Z,27.55
2022-08-20T12:28:25.757Z,27.77
2022-08-20T12:29:21.243Z,28.01
2022-08-20T12:30:20.242Z,28.22
2022-08-20T12:31:20.225Z,28.42
2022-08-20T12:32:20.233Z,28.56
2022-08-20T12:33:20.206Z,28.35
2022-08-20T12:34:20.193Z,28.27
2022-08-20T12:35:20.174Z,28.11
2022-08-20T12:36:20.174Z,28.02
2022-08-20T12:37:20.173Z,27.95
2022-08-20T12:38:20.149Z,28.07
2022-08-20T12:39:20.134Z,28.17
2022-08-20T12:40:30.540Z,28.30
2022-08-20T12:41:21.108Z,28.48
2022-08-20T12:42:20.105Z,28.49
2022-08-20T12:43:24.730Z,28.56
2022-08-20T12:44:21.085Z,28.57
2022-08-20T12:45:20.067Z,28.57
2022-08-20T12:46:20.058Z,28.38
2022-08-20T12:47:20.046Z,28.26
2022-08-20T12:48:20.036Z,28.07
2022-08-20T12:49:20.047Z,27.96
2022-08-20T12:50:20.019Z,28.04
2022-08-20T12:51:19.998Z,28.11
2022-08-20T12:52:19.997Z,28.10